Overton, Nevada Weather observations

Data are for observation ending at time listed.
 Day   Time    Ave.   Ave.  Ave.  Vector   Max.   Stn.    Total    Solar   Ave.  
  of    of     Air    Rel.  Wind   Wind    Wind   Baro.  Precip.   Rad.    Soil  
Year   Day     Temp.  Hum.  Speed  Dir.    Gust   Pres.                    Temp. 
2026   (PST)    F      %     mph   deg.    mph     mb.     in.     W/m2     F   
------------------------------------------------------------------------------
 244   20:00   93.3    10    4.3   209      8.4   963.0    0.00       0    95.6
 244   20:10   92.9    10    3.2   206      8.3   963.2    0.00       0    95.2
 244   20:20   92.4    10    2.3   159      4.5   963.3    0.00       0    94.8
 244   20:30   90.2    12    1.3   109      4.5   963.3    0.00       0    93.9
 244   20:40   88.8    12    1.3   111      2.1   963.3    0.00       0    93.3
 244   20:50   88.3    13    0.7   108      2.3   963.3    0.00       0    92.8
 244   21:00   86.8    14    0.3   127      1.5   963.3    0.00       0    92.0
 244   21:10   85.7    14    0.4   172      1.7   963.3    0.00       0    91.7
 244   21:20   85.3    15    1.2   105      2.5   963.1    0.00       0    91.4
 244   21:30   83.4    17    1.6    69      3.1   963.0    0.00       0    90.2
 244   21:40   81.0    19    0.4    83      2.5   962.9    0.00       0    89.7
 244   21:50   81.0    19    0.3   116      2.8   962.9    0.00       0    89.3
 244   22:00   80.3    19    0.4   249      2.2   962.8    0.00       0    89.0
 244   22:10   80.1    19    1.1    24      3.9   962.8    0.00       0    88.2
 244   22:20   78.9    20    2.4   318      5.0   962.7    0.00       0    87.8
 244   22:30   77.0    22    2.3   342      3.6   962.7    0.00       0    87.0
 244   22:40   76.9    22    1.8   346      2.5   962.8    0.00       0    86.6
 244   22:50   77.1    21    1.1    41      3.8   962.8    0.00       0    87.0
 244   23:00   79.8    19    0.7   148      2.3   962.9    0.00       0    87.2
 244   23:10   78.8    20    0.7   357      2.3   962.9    0.00       0    86.1
 244   23:20   78.7    18    1.8   212      5.3   963.0    0.00       0    86.5
 244   23:30   86.8    10    4.2   209      9.2   963.1    0.00       0    87.9
 244   23:40   88.1     9    3.5   197      7.4   963.4    0.00       0    88.1
 244   23:50   85.8    11    1.4   111      4.1   963.7    0.00       0    87.4
 245    0:00   83.2    13    1.6    75      3.5   963.9    0.00       0    86.6
 245    0:10   81.0    14    1.8    88      3.3   963.9    0.00       0    86.2
 245    0:20   81.1    14    1.4   117      3.8   963.9    0.00       0    86.1
 245    0:30   81.1    14    2.4   107      3.7   963.8    0.00       0    86.0
 245    0:40   79.8    15    2.8    71      4.7   963.7    0.00       0    85.6
 245    0:50   79.5    15    1.0    66      3.4   963.7    0.00       0    85.3
 245    1:00   79.2    14    1.3    82      3.3   963.6    0.00       0    85.3
 245    1:10   79.7    14    1.7   156      3.9   963.7    0.00       0    85.3
 245    1:20   78.9    15    1.4   155      2.9   963.7    0.00       0    85.1
 245    1:30   78.0    15    1.0    90      2.5   963.7    0.00       0    83.9
 245    1:40   76.5    16    1.2    84      2.3   963.7    0.00       0    83.5
 245    1:50   77.3    15    2.6    80      4.4   963.7    0.00       0    83.9
 245    2:00   76.8    16    1.6    32      3.9   963.7    0.00       0    82.9
 245    2:10   75.7    17    0.7   272      3.7   963.7    0.00       0    83.4
 245    2:20   76.4    16    0.5   112      1.7   963.7    0.00       0    83.5
 245    2:30   76.7    16    1.7    83      3.2   963.7    0.00       0    83.2
 245    2:40   75.3    18    2.1    62      3.3   963.6    0.00       0    82.3
 245    2:50   72.6    22    1.3   344      2.3   963.7    0.00       0    81.5
 245    3:00   72.2    22    0.8    36      2.3   963.6    0.00       0    81.5
 245    3:10   73.4    20    2.1   151      3.3   963.6    0.00       0    82.0
 245    3:20   74.2    20    0.7   219      2.1   963.6    0.00       0    81.2
 245    3:30   73.0    21    0.6   228      2.2   963.7    0.00       0    80.7
 245    3:40   72.3    22    0.4   178      1.6   963.7    0.00       0    80.3
 245    3:50   71.4    23    0.6   142      1.9   963.6    0.00       0    79.9
 245    4:00   69.1    27    1.3   354      2.5   963.6    0.00       0    79.2
 245    4:10   68.6    26    1.0    84      2.6   963.6    0.00       0    78.9
 245    4:20   70.7    26    1.6   105      2.6   963.6    0.00       0    79.1
 245    4:30   68.1    30    2.1   334      3.1   963.6    0.00       0    77.8
 245    4:40   67.3    28    0.8   329      1.9   963.7    0.00       0    77.9
 245    4:50   67.4    28    0.5    70      2.1   963.7    0.00       0    77.4
 245    5:00   65.7    32    1.9    19      3.3   963.7    0.00       1    76.5
 245    5:10   63.6    35    3.6   351      5.0   963.8    0.00       2    75.9
 245    5:20   65.1    32    1.0   158      2.1   963.8    0.00       6    77.1
 245    5:30   68.0    28    2.8   186      4.5   963.8    0.00      12    77.9
 245    5:40   70.4    25    3.4   180      5.9   963.9    0.00      55    78.9
 245    5:50   73.8    20    4.3   181      5.7   964.2    0.00      88    82.4
 245    6:00   75.7    20    2.8   179      6.6   964.6    0.00     119    83.8
 245    6:10   71.6    27    3.5    18      5.8   965.1    0.00     152    84.1
 245    6:20   74.9    23    3.6    31      5.4   965.3    0.00     186    86.4
 245    6:30   77.9    18    2.7    87      5.0   965.5    0.00     221    89.1
 245    6:40   81.0    15    1.2   116      3.3   965.8    0.00     256    91.9
 245    6:50   83.3    15    1.2   126      3.4   966.0    0.00     291    93.7
 245    7:00   83.4    17    2.5    87      4.4   966.3    0.00     328    94.8
 245    7:10   82.1    20    3.2    76      4.6   966.5    0.00     364    95.3
 245    7:20   84.3    17    3.1   121      8.8   966.7    0.00     400    97.3
 245    7:30   86.3    13    4.2   146     10.2   966.9    0.00     435    99.1
 245    7:40   87.2    12    5.6   130     11.5   967.1    0.00     469    99.5
 245    7:50   87.9    11    4.9   129      9.8   967.3    0.00     502    101.2
 245    8:00   88.1    11    5.8   143     12.4   967.5    0.00     534    102.1
 245    8:10   88.7     9    7.3   170     12.6   967.6    0.00     567    103.0
 245    8:20   88.6     8    7.2   170     12.0   967.7    0.00     599    104.0
 245    8:30   89.2     8    7.1   176     12.1   967.7    0.00     630    105.2
 245    8:40   89.8     8    6.7   168     11.2   967.7    0.00     659    106.1
 245    8:50   89.8     8    7.6   177     14.5   967.8    0.00     687    106.8
 245    9:00   90.2     9    7.3   169     15.8   967.9    0.00     712    107.5
 245    9:10   90.5    10    5.6   164     11.5   968.0    0.00     735    108.3
 245    9:20   91.0    10    5.7   146     11.5   968.1    0.00     759    108.6
 245    9:30   91.3    10    6.4   153     14.9   968.1    0.00     782    109.2
 245    9:40   92.0     9    7.1   162     13.4   968.0    0.00     805    110.1
 245    9:50   92.3     8    8.4   159     17.3   968.0    0.00     827    110.6
 245   10:00   92.3     8    8.4   153     17.8   967.9    0.00     845    110.6
 245   10:10   92.8     8    9.8   172     19.3   967.8    0.00     862    111.5
 245   10:20   93.1     7    8.5   162     16.4   967.6    0.00     877    111.0
 245   10:30   93.3     6    8.6   172     16.4   967.5    0.00     890    110.8
 245   10:40   93.3     6   12.5   188     20.8   967.5    0.00     903    110.6
 245   10:50   93.8     6    9.3   193     16.1   967.5    0.00     911    110.9
 245   11:00   94.6     7    8.0   169     14.4   967.4    0.00     916    111.7
 245   11:10   94.7     6    7.2   151     16.4   967.3    0.00     921    111.5
 245   11:20   94.7     6    8.1   185     15.6   967.2    0.00     925    112.1
 245   11:30   95.5     6    8.9   184     19.1   967.1    0.00     928    112.5
 245   11:40   95.6     6   10.2   184     23.6   966.9    0.00     930    112.8
 245   11:50   95.3     6   14.2   185     22.5   966.8    0.00     929    112.4
 245   12:00   95.5     6   10.8   182     19.5   966.7    0.00     926    111.8
 245   12:10   95.7     6   12.0   192     21.0   966.6    0.00     920    111.6
 245   12:20   96.5     6    9.1   182     16.0   966.4    0.00     910    111.5
 245   12:30   97.7     6    9.0   178     20.5   966.3    0.00     898    111.4
 245   12:40   97.4     6   10.6   175     18.0   966.1    0.00     890    109.9
 245   12:50   97.2     6    9.3   167     20.5   966.0    0.00     877    108.4
 245   13:00   98.0     6   10.3   172     20.9   965.8    0.00     867    107.7
 245   13:10   97.6     5   11.9   192     22.2   965.7    0.00     848    106.9
 245   13:20   98.0     5   11.1   177     18.6   965.6    0.00     831    106.8
 245   13:30   97.9     5   13.7   180     22.6   965.4    0.00     812    107.0
 245   13:40   98.4     5   10.8   182     18.9   965.3    0.00     791    106.9
 245   13:50   98.3     5   11.9   181     21.6   965.1    0.00     770    106.9
 245   14:00   99.0     5    9.0   195     17.9   965.0    0.00     747    106.6
 245   14:10   99.2     6    8.4   156     18.3   964.9    0.00     721    106.2
 245   14:20   99.3     5    9.9   168     20.5   964.9    0.00     695    106.2
 245   14:30   99.6     5    9.0   169     17.4   964.7    0.00     668    106.3
 245   14:40   99.4     5   10.9   162     19.8   964.6    0.00     639    105.9
 245   14:50   99.7     5    9.3   176     22.7   964.5    0.00     611    105.8
 245   15:00   99.7     5   10.2   160     20.9   964.3    0.00     576    105.4
 245   15:10   99.3     5   10.9   163     22.0   964.1    0.00     544    105.0
 245   15:20   99.7     5    9.0   169     17.0   964.1    0.00     520    104.8
 245   15:30   99.6     5   11.4   176     20.4   964.0    0.00     483    104.5
 245   15:40   99.3     5   11.4   174     19.2   963.9    0.00     456    104.4
 245   15:50   99.3     5   12.5   193     21.0   963.9    0.00     381    103.9
 245   16:00   99.4     5    9.1   184     20.7   963.8    0.00      53    103.5
 245   16:10   99.2     5   10.0   186     19.6   963.7    0.00     223    103.3
 245   16:20   99.0     5    8.8   190     17.4   963.6    0.00     318    103.0
 245   16:30   99.2     5   12.2   184     24.4   963.6    0.00     284    102.8
 245   16:40   98.6     5   10.7   192     20.2   963.6    0.00     251    102.3
 245   16:50   98.5     5   10.0   186     18.5   963.6    0.00     218    102.0
 245   17:00   98.2     5    7.6   205     15.9   963.6    0.00     185    101.3
 245   17:10   98.0     5    8.5   209     15.9   963.5    0.00     107    100.9
 245   17:20   97.7     5    7.3   206     13.5   963.3    0.00     114    100.4
 245   17:30   97.4     5    7.6   196     13.3   963.3    0.00      94    99.9
 245   17:40   96.9     5    7.2   205     13.1   963.3    0.00      60    99.1
 245   17:50   96.4     5    8.6   198     13.9   963.1    0.00      15    98.7
 245   18:00   96.0     5    8.3   205     12.9   963.1    0.00       9    98.2
 245   18:10   95.6     5    7.9   197     12.9   963.0    0.00       4    97.7
 245   18:20   95.3     5    8.9   192     14.0   962.9    0.00       1    97.3
 245   18:30   94.8     5    6.7   192     11.7   962.8    0.00       0    96.6
 245   18:40   93.7     6    3.5   195      8.5   962.8    0.00       0    95.8
 245   18:50   92.8     6    2.0   213      3.5   962.7    0.00       0    95.0
 245   19:00   92.6     5    5.4   191     13.8   962.7    0.00       0    94.9
 245   19:10   93.1     5    4.1   177     11.5   962.7    0.00       0    94.6
 245   19:20   92.1     5    4.0   160      8.6   962.8    0.00       0    94.1
 245   19:30   91.8     5    5.7   180     12.6   962.8    0.00       0    93.8
 245   19:40   92.3     5    8.0   184     14.3   962.8    0.00       0    93.8
 245   19:50   92.3     6    7.3   186     11.8   963.0    0.00       0    93.5

Return to Overton, Nevada graphs page.


Western Regional Climate Center,wrcc@dri.edu